Cliffland, Iowa
Current Conditions -  °F | °C
As of 2:53 AM on Wednesday 26 Nov 2014 (Local Time) from KOTM Reporting Station
Broken Clouds Broken Clouds  
Wind Chill: 17°   Ceiling: 11000
Heat Index: 28°   Visibility: 10mi
Dew Point: 19°   Wind: 13mph
Humidity: 69%   Direction: 150°SSE
Pressure: 29.99"   Gusts: NA
Location:  41.0803°N, 92.3054°W
Report Text: KOTM 260853Z AUTO 15011KT 10SM BKN110 M02/M07 A2999 RMK AO2 SLP165 T10221072 56020
Loading
Personal Weather Stations






























Interactive Weather Map New forecast layout! Learn more

10-Day Weather Forecast

Advertisements
Track Severe Weather on mobile